createdAt,value
2017-09-24T00:01:23.601Z,76.90
2017-09-24T00:04:25.650Z,79.50
2017-09-24T00:07:26.953Z,79.23
2017-09-24T00:10:28.354Z,79.27
2017-09-24T00:13:29.611Z,78.57
2017-09-24T00:16:31.643Z,71.50
2017-09-24T00:19:32.926Z,88.30
2017-09-24T00:22:34.957Z,83.40
2017-09-24T00:25:36.253Z,92.37
2017-09-24T00:28:39.685Z,79.17
2017-09-24T00:31:41.680Z,85.13
2017-09-24T00:34:43.815Z,81.00
2017-09-24T00:37:45.086Z,80.03
2017-09-24T00:40:46.376Z,82.77
2017-09-24T00:43:48.438Z,82.53
2017-09-24T00:46:50.495Z,82.40
2017-09-24T00:49:51.793Z,78.90
2017-09-24T00:52:53.113Z,78.20
2017-09-24T00:55:55.192Z,78.63
2017-09-24T00:58:56.510Z,78.77
2017-09-24T01:01:57.783Z,81.37
2017-09-24T01:04:59.795Z,96.13
2017-09-24T01:08:01.143Z,72.87
2017-09-24T01:11:02.451Z,79.50
2017-09-24T01:14:03.788Z,77.07
2017-09-24T01:17:05.780Z,79.33
2017-09-24T01:20:07.123Z,80.67
2017-09-24T01:23:08.551Z,84.70
2017-09-24T01:26:10.602Z,74.93
2017-09-24T01:29:11.929Z,74.73
2017-09-24T01:32:13.311Z,75.50
2017-09-24T01:35:14.659Z,70.73
2017-09-24T01:38:15.967Z,85.73
2017-09-24T01:41:17.286Z,71.97
2017-09-24T01:44:18.631Z,81.07
2017-09-24T01:47:20.701Z,77.67
2017-09-24T01:50:21.993Z,77.17
2017-09-24T01:53:23.321Z,68.60
2017-09-24T01:56:24.615Z,77.20
2017-09-24T01:59:25.978Z,71.50
2017-09-24T02:02:28.021Z,74.57
2017-09-24T02:05:29.318Z,71.70
2017-09-24T02:08:30.789Z,76.53
2017-09-24T02:11:32.061Z,76.07
2017-09-24T02:14:33.364Z,73.63
2017-09-24T02:17:34.626Z,81.80
2017-09-24T02:20:35.896Z,70.47
2017-09-24T02:23:37.170Z,79.33
2017-09-24T02:26:38.484Z,75.07
2017-09-24T02:29:39.734Z,73.67
2017-09-24T02:32:41.014Z,89.53
2017-09-24T02:35:42.287Z,72.77
2017-09-24T02:38:44.331Z,70.80
2017-09-24T02:41:45.577Z,74.80
2017-09-24T02:44:46.867Z,74.87
2017-09-24T02:47:48.282Z,73.40
2017-09-24T02:50:49.524Z,81.20
2017-09-24T02:53:50.930Z,82.23
2017-09-24T02:56:52.190Z,76.30
2017-09-24T02:59:53.496Z,71.40
2017-09-24T03:02:55.530Z,88.87
2017-09-24T03:05:56.818Z,80.07
2017-09-24T03:08:58.815Z,65.07
2017-09-24T03:12:00.111Z,69.93
2017-09-24T03:15:01.338Z,68.57
2017-09-24T03:18:02.640Z,77.30
2017-09-24T03:21:03.905Z,73.83
2017-09-24T03:24:05.203Z,80.27
2017-09-24T03:27:06.714Z,71.00
2017-09-24T03:30:08.000Z,69.53
2017-09-24T03:33:09.306Z,71.13
2017-09-24T03:36:10.588Z,78.40
2017-09-24T03:39:11.883Z,82.00
2017-09-24T03:42:13.155Z,68.63
2017-09-24T03:45:14.414Z,73.30
2017-09-24T03:48:15.676Z,83.37
2017-09-24T03:51:16.952Z,68.57
2017-09-24T03:54:18.350Z,61.13
2017-09-24T03:57:19.622Z,73.10
2017-09-24T04:00:21.088Z,71.20
2017-09-24T04:03:22.353Z,79.37
2017-09-24T04:06:23.625Z,69.40
2017-09-24T04:09:25.637Z,68.63
2017-09-24T04:12:26.949Z,71.33
2017-09-24T04:15:28.227Z,66.03
2017-09-24T04:18:29.539Z,66.50
2017-09-24T04:21:30.991Z,71.37
2017-09-24T04:24:32.251Z,60.67
2017-09-24T04:27:33.543Z,66.50
2017-09-24T04:30:34.792Z,69.80
2017-09-24T04:33:36.101Z,64.97
2017-09-24T04:36:37.353Z,60.80
2017-09-24T04:39:38.635Z,67.20
2017-09-24T04:42:39.894Z,64.30
2017-09-24T04:45:41.181Z,58.10
2017-09-24T04:48:42.443Z,70.10
2017-09-24T04:51:43.708Z,63.13
2017-09-24T04:54:45.104Z,64.27
2017-09-24T04:57:47.119Z,61.93
2017-09-24T05:00:48.403Z,55.10
2017-09-24T05:03:49.667Z,71.80
2017-09-24T05:06:50.964Z,65.40
2017-09-24T05:09:52.271Z,62.70
2017-09-24T05:12:54.337Z,63.53
2017-09-24T05:15:56.472Z,60.40
2017-09-24T05:18:57.751Z,57.43
2017-09-24T05:21:59.767Z,60.87
2017-09-24T05:25:01.059Z,58.43
2017-09-24T05:28:02.370Z,60.37
2017-09-24T05:31:03.639Z,55.37
2017-09-24T05:34:05.263Z,57.80
2017-09-24T05:37:06.516Z,58.93
2017-09-24T05:40:07.804Z,59.93
2017-09-24T05:43:09.063Z,61.33
2017-09-24T05:46:11.069Z,64.13
2017-09-24T05:49:12.334Z,59.57
2017-09-24T05:52:13.643Z,64.87
2017-09-24T05:55:15.630Z,72.87
2017-09-24T05:58:16.902Z,58.70
2017-09-24T06:01:18.207Z,56.70
2017-09-24T06:04:19.502Z,56.83
2017-09-24T06:07:20.779Z,59.87
2017-09-24T06:10:22.078Z,55.00
2017-09-24T06:13:23.740Z,72.63
2017-09-24T06:16:25.004Z,56.17
2017-09-24T06:19:26.301Z,62.73
2017-09-24T06:22:27.566Z,62.77
2017-09-24T06:25:28.858Z,70.00
2017-09-24T06:28:30.135Z,57.17
2017-09-24T06:31:32.175Z,53.90
2017-09-24T06:34:33.583Z,54.30
2017-09-24T06:37:34.851Z,58.33
2017-09-24T06:40:36.155Z,57.93
2017-09-24T06:43:38.159Z,49.80
2017-09-24T06:46:39.713Z,52.13
2017-09-24T06:49:40.977Z,60.50
2017-09-24T06:52:42.281Z,49.03
2017-09-24T06:55:44.309Z,53.70
2017-09-24T06:58:45.628Z,55.30
2017-09-24T07:01:46.926Z,54.77
2017-09-24T07:04:48.248Z,58.37
2017-09-24T07:07:49.531Z,61.17
2017-09-24T07:10:51.563Z,61.60
2017-09-24T07:13:52.842Z,56.93
2017-09-24T07:16:54.929Z,57.90
2017-09-24T07:19:56.595Z,60.13
2017-09-24T07:22:57.836Z,59.40
2017-09-24T07:25:59.120Z,54.47
2017-09-24T07:29:00.375Z,49.43
2017-09-24T07:32:01.649Z,60.67
2017-09-24T07:35:02.940Z,57.60
2017-09-24T07:38:04.225Z,71.47
2017-09-24T07:41:05.468Z,58.13
2017-09-24T07:44:06.776Z,60.00
2017-09-24T07:47:08.053Z,58.67
2017-09-24T07:50:09.489Z,61.60
2017-09-24T07:53:10.751Z,61.47
2017-09-24T07:56:12.027Z,62.63
2017-09-24T07:59:13.391Z,72.13
2017-09-24T08:02:14.672Z,64.67
2017-09-24T08:05:22.963Z,66.23
2017-09-24T08:08:24.955Z,62.47
2017-09-24T08:11:26.252Z,78.93
2017-09-24T08:14:27.508Z,69.83
2017-09-24T08:17:28.804Z,72.17
2017-09-24T08:20:30.075Z,81.23
2017-09-24T08:23:31.396Z,80.63
2017-09-24T08:26:32.656Z,85.93
2017-09-24T08:29:33.923Z,79.00
2017-09-24T08:32:35.198Z,77.00
2017-09-24T08:35:36.481Z,77.27
2017-09-24T08:38:37.761Z,78.40
2017-09-24T08:41:39.049Z,86.80
2017-09-24T08:44:40.432Z,88.43
2017-09-24T08:47:41.720Z,81.10
2017-09-24T08:50:43.031Z,82.57
2017-09-24T08:53:44.296Z,86.20
2017-09-24T08:56:45.607Z,90.13
2017-09-24T08:59:47.618Z,85.77
2017-09-24T09:02:48.927Z,91.37
2017-09-24T09:05:51.009Z,87.70
2017-09-24T09:08:52.304Z,110.40
2017-09-24T09:11:53.556Z,106.60
2017-09-24T09:14:55.634Z,100.53
2017-09-24T09:17:56.905Z,100.40
2017-09-24T09:20:58.970Z,96.50
2017-09-24T09:24:00.959Z,107.03
2017-09-24T09:27:02.264Z,101.63
2017-09-24T09:30:10.654Z,94.90
2017-09-24T09:33:20.327Z,104.17
2017-09-24T09:36:21.639Z,100.87
2017-09-24T09:39:22.917Z,100.00
2017-09-24T09:42:24.236Z,110.60
2017-09-24T09:45:44.174Z,109.93
2017-09-24T09:48:46.187Z,102.43
2017-09-24T09:51:47.561Z,104.30
2017-09-24T09:54:48.887Z,103.13
2017-09-24T09:57:50.197Z,100.17
2017-09-24T10:00:52.324Z,96.97
2017-09-24T10:03:53.756Z,57.63
2017-09-24T10:07:13.592Z,82.67
2017-09-24T10:10:15.643Z,74.30
2017-09-24T10:13:16.967Z,76.87
2017-09-24T10:16:18.265Z,79.77
2017-09-24T10:19:20.451Z,100.73
2017-09-24T10:22:21.748Z,83.97
2017-09-24T10:25:23.079Z,63.53
2017-09-24T10:28:42.708Z,70.17
2017-09-24T10:31:45.538Z,62.27
2017-09-24T10:34:46.823Z,63.70
2017-09-24T10:37:48.151Z,65.03
2017-09-24T10:40:49.549Z,57.20
2017-09-24T10:43:51.582Z,62.50
2017-09-24T10:46:52.898Z,56.73
2017-09-24T10:49:54.184Z,58.37
2017-09-24T10:52:55.471Z,44.20
2017-09-24T10:55:56.763Z,43.37
2017-09-24T10:58:58.053Z,38.23
2017-09-24T11:02:00.110Z,47.50
2017-09-24T11:05:01.426Z,45.70
2017-09-24T11:08:02.755Z,50.33
2017-09-24T11:11:04.042Z,41.30
2017-09-24T11:14:05.336Z,45.13
2017-09-24T11:17:06.578Z,48.60
2017-09-24T11:20:07.839Z,50.70
2017-09-24T11:23:09.089Z,43.93
2017-09-24T11:26:10.448Z,42.50
2017-09-24T11:29:11.715Z,36.23
2017-09-24T11:32:12.983Z,39.90
2017-09-24T11:35:14.248Z,65.33
2017-09-24T11:38:16.266Z,36.17
2017-09-24T11:41:17.563Z,35.10
2017-09-24T11:44:19.594Z,35.83
2017-09-24T11:47:20.836Z,45.00
2017-09-24T11:50:22.121Z,42.67
2017-09-24T11:53:24.132Z,41.53
2017-09-24T11:56:25.398Z,48.10
2017-09-24T11:59:26.726Z,40.90
2017-09-24T12:02:28.019Z,42.53
2017-09-24T12:05:29.436Z,48.07
2017-09-24T12:08:30.686Z,40.63
2017-09-24T12:11:31.954Z,40.03
2017-09-24T12:14:33.668Z,41.00
2017-09-24T12:17:34.921Z,45.03
2017-09-24T12:20:36.231Z,33.07
2017-09-24T12:23:37.513Z,36.50
2017-09-24T12:26:38.801Z,31.03
2017-09-24T12:29:40.083Z,31.77
2017-09-24T12:32:41.399Z,32.13
2017-09-24T12:35:49.787Z,35.37
2017-09-24T12:38:51.090Z,39.27
2017-09-24T12:41:52.371Z,31.00
2017-09-24T12:44:54.435Z,34.80
2017-09-24T12:47:56.488Z,26.53
2017-09-24T12:50:58.708Z,28.30
2017-09-24T12:53:59.984Z,32.00
2017-09-24T12:57:01.387Z,28.00
2017-09-24T13:00:02.718Z,35.17
2017-09-24T13:03:04.803Z,32.13
2017-09-24T13:06:06.142Z,32.70
2017-09-24T13:09:08.176Z,26.80
2017-09-24T13:12:09.476Z,29.07
2017-09-24T13:15:10.779Z,27.10
2017-09-24T13:18:12.084Z,28.30
2017-09-24T13:21:13.359Z,25.33
2017-09-24T13:24:14.860Z,26.07
2017-09-24T13:27:16.130Z,32.50
2017-09-24T13:30:17.440Z,26.10
2017-09-24T13:33:19.461Z,29.77
2017-09-24T13:36:20.798Z,25.37
2017-09-24T13:39:22.072Z,24.80
2017-09-24T13:42:23.382Z,29.03
2017-09-24T13:45:24.675Z,23.70
2017-09-24T13:48:25.961Z,28.70
2017-09-24T13:51:28.153Z,23.73
2017-09-24T13:54:29.459Z,34.83
2017-09-24T13:57:30.830Z,31.30
2017-09-24T14:00:32.886Z,28.23
2017-09-24T14:03:35.118Z,22.40
2017-09-24T14:06:37.294Z,23.00
2017-09-24T14:09:40.538Z,26.40
2017-09-24T14:12:42.248Z,35.40
2017-09-24T14:15:43.544Z,29.23
2017-09-24T14:18:47.178Z,25.40
2017-09-24T14:21:48.649Z,42.20
2017-09-24T14:24:50.782Z,21.77
2017-09-24T14:27:52.034Z,29.43
2017-09-24T14:30:53.331Z,40.00
2017-09-24T14:33:54.637Z,20.37
2017-09-24T14:36:55.935Z,25.37
2017-09-24T14:39:57.228Z,27.37
2017-09-24T14:42:58.518Z,32.30
2017-09-24T14:45:59.803Z,34.13
2017-09-24T14:49:01.800Z,28.60
2017-09-24T14:52:03.143Z,24.37
2017-09-24T14:55:04.418Z,23.60
2017-09-24T14:58:05.709Z,22.03
2017-09-24T15:01:07.720Z,22.37
2017-09-24T15:04:09.033Z,25.33
2017-09-24T15:07:11.064Z,26.60
2017-09-24T15:10:12.355Z,28.53
2017-09-24T15:13:13.703Z,26.00
2017-09-24T15:16:15.047Z,23.20
2017-09-24T15:19:17.079Z,24.30
2017-09-24T15:22:18.439Z,25.77
2017-09-24T15:25:19.730Z,24.00
2017-09-24T15:28:21.022Z,27.43
2017-09-24T15:31:22.312Z,28.40
2017-09-24T15:34:24.387Z,19.47
2017-09-24T15:37:25.620Z,17.97
2017-09-24T15:40:27.650Z,20.43
2017-09-24T15:43:28.935Z,18.73
2017-09-24T15:46:30.940Z,20.87
2017-09-24T15:49:32.419Z,21.67
2017-09-24T15:52:33.696Z,16.57
2017-09-24T15:55:35.715Z,30.03
2017-09-24T15:58:36.988Z,22.10
2017-09-24T16:01:38.290Z,20.63
2017-09-24T16:04:39.583Z,26.17
2017-09-24T16:07:40.882Z,19.20
2017-09-24T16:10:42.143Z,20.60
2017-09-24T16:13:43.486Z,18.10
2017-09-24T16:16:44.876Z,24.43
2017-09-24T16:19:46.160Z,23.13
2017-09-24T16:22:48.220Z,14.33
2017-09-24T16:25:50.233Z,19.77
2017-09-24T16:28:51.517Z,15.23
2017-09-24T16:31:52.800Z,10.53
2017-09-24T16:34:54.126Z,24.17
2017-09-24T16:37:55.478Z,12.13
2017-09-24T16:40:56.775Z,9.27
2017-09-24T16:43:58.096Z,13.70
2017-09-24T16:47:00.136Z,19.30
2017-09-24T16:50:01.450Z,7.33
2017-09-24T16:53:02.707Z,24.20
2017-09-24T16:56:04.032Z,19.30
2017-09-24T16:59:06.715Z,28.40
2017-09-24T17:02:08.045Z,17.83
2017-09-24T17:05:09.924Z,12.20
2017-09-24T17:08:12.585Z,17.37
2017-09-24T17:11:14.921Z,13.90
2017-09-24T17:14:17.156Z,22.83
2017-09-24T17:17:20.255Z,11.93
2017-09-24T17:20:24.294Z,14.37
2017-09-24T17:23:26.614Z,13.80
2017-09-24T17:26:28.700Z,10.13
2017-09-24T17:29:30.071Z,9.87
2017-09-24T17:32:31.339Z,16.70
2017-09-24T17:35:34.983Z,31.20
2017-09-24T17:38:36.629Z,24.00
2017-09-24T17:41:38.796Z,24.70
2017-09-24T17:44:40.986Z,20.03
2017-09-24T17:47:42.851Z,24.60
2017-09-24T17:50:45.300Z,17.93
2017-09-24T17:53:47.378Z,18.87
2017-09-24T17:56:48.638Z,27.13
2017-09-24T17:59:49.940Z,19.43
2017-09-24T18:02:51.692Z,19.03
2017-09-24T18:05:53.085Z,18.47
2017-09-24T18:08:55.210Z,15.60
2017-09-24T18:11:57.362Z,17.90
2017-09-24T18:14:59.283Z,16.90
2017-09-24T18:18:00.780Z,16.30
2017-09-24T18:21:03.443Z,15.37
2017-09-24T18:24:05.507Z,14.03
2017-09-24T18:27:07.095Z,20.30
2017-09-24T18:30:09.239Z,11.43
2017-09-24T18:33:11.276Z,14.43
2017-09-24T18:36:13.408Z,20.37
2017-09-24T18:39:14.689Z,14.77
2017-09-24T18:42:16.806Z,25.43
2017-09-24T18:45:18.176Z,12.70
2017-09-24T18:48:20.748Z,13.90
2017-09-24T18:51:22.987Z,15.63
2017-09-24T18:54:26.449Z,22.80
2017-09-24T18:57:29.306Z,10.50
2017-09-24T19:00:30.578Z,11.77
2017-09-24T19:03:33.619Z,9.87
2017-09-24T19:06:36.922Z,13.43
2017-09-24T19:09:39.215Z,14.03
2017-09-24T19:12:41.649Z,11.67
2017-09-24T19:15:43.001Z,9.20
2017-09-24T19:18:45.558Z,8.53
2017-09-24T19:21:47.659Z,7.40
2017-09-24T19:24:49.149Z,11.60
2017-09-24T19:27:50.987Z,8.40
2017-09-24T19:30:52.696Z,12.20
2017-09-24T19:33:55.552Z,12.30
2017-09-24T19:36:58.146Z,9.53
2017-09-24T19:40:00.564Z,19.23
2017-09-24T19:43:02.500Z,8.40
2017-09-24T19:46:03.852Z,7.60
2017-09-24T19:49:06.942Z,15.47
2017-09-24T19:52:09.590Z,7.03
2017-09-24T19:55:11.694Z,8.20
2017-09-24T19:58:12.944Z,10.03
2017-09-24T20:01:15.725Z,10.43
2017-09-24T20:04:17.135Z,8.90
2017-09-24T20:07:18.446Z,177.93
2017-09-24T20:10:20.943Z,13.73
2017-09-24T20:13:23.063Z,17.47
2017-09-24T20:16:24.378Z,15.30
2017-09-24T20:19:27.845Z,10.20
2017-09-24T20:22:34.189Z,15.27
2017-09-24T20:25:35.447Z,11.80
2017-09-24T20:28:36.739Z,11.00
2017-09-24T20:31:38.168Z,10.90
2017-09-24T20:34:40.225Z,11.20
2017-09-24T20:37:42.243Z,12.50
2017-09-24T20:40:43.530Z,9.40
2017-09-24T20:43:44.768Z,10.90
2017-09-24T20:46:46.031Z,12.43
2017-09-24T20:49:47.304Z,10.47
2017-09-24T20:52:48.772Z,13.13
2017-09-24T20:55:50.119Z,21.93
2017-09-24T20:58:51.446Z,13.40
2017-09-24T21:01:53.450Z,14.73
2017-09-24T21:04:54.885Z,8.40
2017-09-24T21:07:56.180Z,10.40
2017-09-24T21:10:57.566Z,15.93
2017-09-24T21:13:59.606Z,11.97
2017-09-24T21:17:01.018Z,9.20
2017-09-24T21:20:05.524Z,8.53
2017-09-24T21:23:06.878Z,13.37
2017-09-24T21:26:08.194Z,13.37
2017-09-24T21:29:10.233Z,9.23
2017-09-24T21:32:11.540Z,10.70
2017-09-24T21:35:12.788Z,9.47
2017-09-24T21:38:14.101Z,13.80
2017-09-24T21:41:16.095Z,14.27
2017-09-24T21:44:17.359Z,19.03
2017-09-24T21:47:18.603Z,10.87
2017-09-24T21:50:19.911Z,9.80
2017-09-24T21:53:21.322Z,9.40
2017-09-24T21:56:22.614Z,15.50
2017-09-24T21:59:24.667Z,10.97
2017-09-24T22:02:25.927Z,23.87
2017-09-24T22:05:27.236Z,16.43
2017-09-24T22:08:28.479Z,12.73
2017-09-24T22:11:30.531Z,13.13
2017-09-24T22:14:31.952Z,11.93
2017-09-24T22:17:33.956Z,14.20
2017-09-24T22:20:35.609Z,15.10
2017-09-24T22:23:36.859Z,12.50
2017-09-24T22:26:38.161Z,25.03
2017-09-24T22:29:39.410Z,12.20
2017-09-24T22:32:41.441Z,15.87
2017-09-24T22:35:42.699Z,36.60
2017-09-24T22:38:43.976Z,29.07
2017-09-24T22:41:46.124Z,13.47
2017-09-24T22:44:47.403Z,19.03
2017-09-24T22:47:48.694Z,14.30
2017-09-24T22:50:49.992Z,17.60
2017-09-24T22:53:52.049Z,13.00
2017-09-24T22:56:53.327Z,19.40
2017-09-24T22:59:54.657Z,16.80
2017-09-24T23:02:56.659Z,15.43
2017-09-24T23:05:57.950Z,16.60
2017-09-24T23:08:59.188Z,17.03
2017-09-24T23:12:00.486Z,16.70
2017-09-24T23:15:01.732Z,14.60
2017-09-24T23:18:03.055Z,21.97
2017-09-24T23:21:04.343Z,18.23
2017-09-24T23:24:05.618Z,23.17
2017-09-24T23:27:06.884Z,14.33
2017-09-24T23:30:08.175Z,13.50
2017-09-24T23:33:09.435Z,15.70
2017-09-24T23:36:10.715Z,19.10
2017-09-24T23:39:11.990Z,15.53
2017-09-24T23:42:13.266Z,19.73
2017-09-24T23:45:15.280Z,17.43
2017-09-24T23:48:16.702Z,16.53
2017-09-24T23:51:17.939Z,17.57
2017-09-24T23:54:19.224Z,17.93
2017-09-24T23:57:20.459Z,23.43
